sensor_id;sensor_type;location;lat;lon;timestamp;temperature;humidity
71801;HTU21D;59647;55.838;37.292;2023-12-20T00:00:08;5.18;94.17
71801;HTU21D;59647;55.838;37.292;2023-12-20T00:02:35;5.15;94.23
71801;HTU21D;59647;55.838;37.292;2023-12-20T00:05:00;5.09;94.18
71801;HTU21D;59647;55.838;37.292;2023-12-20T00:07:27;5.09;94.17
71801;HTU21D;59647;55.838;37.292;2023-12-20T00:09:53;5.06;95.07
71801;HTU21D;59647;55.838;37.292;2023-12-20T00:12:19;5.12;94.47
71801;HTU21D;59647;55.838;37.292;2023-12-20T00:14:45;5.15;94.64
71801;HTU21D;59647;55.838;37.292;2023-12-20T00:17:11;5.18;94.46
71801;HTU21D;59647;55.838;37.292;2023-12-20T00:19:36;5.21;94.24
71801;HTU21D;59647;55.838;37.292;2023-12-20T00:22:02;5.27;94.03
71801;HTU21D;59647;55.838;37.292;2023-12-20T00:24:28;5.30;93.84
71801;HTU21D;59647;55.838;37.292;2023-12-20T00:26:54;5.32;93.75
71801;HTU21D;59647;55.838;37.292;2023-12-20T00:29:20;5.33;93.79
71801;HTU21D;59647;55.838;37.292;2023-12-20T00:31:46;5.36;93.72
71801;HTU21D;59647;55.838;37.292;2023-12-20T00:34:12;5.37;93.58
71801;HTU21D;59647;55.838;37.292;2023-12-20T00:36:38;5.38;93.58
71801;HTU21D;59647;55.838;37.292;2023-12-20T00:39:04;5.35;93.46
71801;HTU21D;59647;55.838;37.292;2023-12-20T00:41:30;5.36;93.55
71801;HTU21D;59647;55.838;37.292;2023-12-20T00:43:56;5.35;93.66
71801;HTU21D;59647;55.838;37.292;2023-12-20T00:46:22;5.38;93.56
71801;HTU21D;59647;55.838;37.292;2023-12-20T00:48:48;5.41;93.47
71801;HTU21D;59647;55.838;37.292;2023-12-20T00:51:13;5.39;93.26
71801;HTU21D;59647;55.838;37.292;2023-12-20T00:53:39;5.36;93.53
71801;HTU21D;59647;55.838;37.292;2023-12-20T00:56:05;5.32;93.51
71801;HTU21D;59647;55.838;37.292;2023-12-20T00:58:32;5.28;93.43
71801;HTU21D;59647;55.838;37.292;2023-12-20T01:00:58;5.24;93.52
71801;HTU21D;59647;55.838;37.292;2023-12-20T01:03:23;5.20;93.63
71801;HTU21D;59647;55.838;37.292;2023-12-20T01:05:49;5.19;93.67
71801;HTU21D;59647;55.838;37.292;2023-12-20T01:08:15;5.17;93.66
71801;HTU21D;59647;55.838;37.292;2023-12-20T01:10:41;5.16;93.62
71801;HTU21D;59647;55.838;37.292;2023-12-20T01:13:07;5.16;93.57
71801;HTU21D;59647;55.838;37.292;2023-12-20T01:15:34;5.15;93.72
71801;HTU21D;59647;55.838;37.292;2023-12-20T01:18:00;5.13;93.91
71801;HTU21D;59647;55.838;37.292;2023-12-20T01:20:26;5.10;93.91
71801;HTU21D;59647;55.838;37.292;2023-12-20T01:22:52;5.09;93.85
71801;HTU21D;59647;55.838;37.292;2023-12-20T01:25:18;5.11;93.72
71801;HTU21D;59647;55.838;37.292;2023-12-20T01:27:44;5.12;93.80
71801;HTU21D;59647;55.838;37.292;2023-12-20T01:30:10;5.15;93.70
71801;HTU21D;59647;55.838;37.292;2023-12-20T01:32:36;5.16;93.62
71801;HTU21D;59647;55.838;37.292;2023-12-20T01:35:03;5.16;93.69
71801;HTU21D;59647;55.838;37.292;2023-12-20T01:37:29;5.13;94.11
71801;HTU21D;59647;55.838;37.292;2023-12-20T01:39:55;5.17;94.14
71801;HTU21D;59647;55.838;37.292;2023-12-20T01:42:21;5.21;93.94
71801;HTU21D;59647;55.838;37.292;2023-12-20T01:44:48;5.22;94.07
71801;HTU21D;59647;55.838;37.292;2023-12-20T01:47:14;5.19;93.95
71801;HTU21D;59647;55.838;37.292;2023-12-20T01:49:40;5.12;94.17
71801;HTU21D;59647;55.838;37.292;2023-12-20T01:52:07;5.09;94.00
71801;HTU21D;59647;55.838;37.292;2023-12-20T01:54:34;5.09;93.96
71801;HTU21D;59647;55.838;37.292;2023-12-20T01:57:01;5.09;94.68
71801;HTU21D;59647;55.838;37.292;2023-12-20T01:59:28;5.13;94.38
71801;HTU21D;59647;55.838;37.292;2023-12-20T02:01:55;5.17;94.32
71801;HTU21D;59647;55.838;37.292;2023-12-20T02:04:21;5.16;95.02
71801;HTU21D;59647;55.838;37.292;2023-12-20T02:06:48;5.22;94.27
71801;HTU21D;59647;55.838;37.292;2023-12-20T02:09:18;5.20;94.20
71801;HTU21D;59647;55.838;37.292;2023-12-20T02:11:44;5.17;93.94
71801;HTU21D;59647;55.838;37.292;2023-12-20T02:14:10;5.11;93.86
71801;HTU21D;59647;55.838;37.292;2023-12-20T02:16:36;5.08;94.32
71801;HTU21D;59647;55.838;37.292;2023-12-20T02:19:04;5.08;94.04
71801;HTU21D;59647;55.838;37.292;2023-12-20T02:21:33;5.05;93.97
71801;HTU21D;59647;55.838;37.292;2023-12-20T02:24:00;5.10;93.86
71801;HTU21D;59647;55.838;37.292;2023-12-20T02:26:26;5.13;93.84
71801;HTU21D;59647;55.838;37.292;2023-12-20T02:28:52;5.16;93.77
71801;HTU21D;59647;55.838;37.292;2023-12-20T02:31:21;5.21;93.77
71801;HTU21D;59647;55.838;37.292;2023-12-20T02:33:48;5.20;93.79
71801;HTU21D;59647;55.838;37.292;2023-12-20T02:36:13;5.24;93.53
71801;HTU21D;59647;55.838;37.292;2023-12-20T02:38:39;5.21;93.61
71801;HTU21D;59647;55.838;37.292;2023-12-20T02:41:05;5.22;93.61
71801;HTU21D;59647;55.838;37.292;2023-12-20T02:43:31;5.24;93.55
71801;HTU21D;59647;55.838;37.292;2023-12-20T02:45:57;5.22;93.59
71801;HTU21D;59647;55.838;37.292;2023-12-20T02:48:23;5.20;93.91
71801;HTU21D;59647;55.838;37.292;2023-12-20T02:50:49;5.21;93.71
71801;HTU21D;59647;55.838;37.292;2023-12-20T02:53:15;5.23;93.67
71801;HTU21D;59647;55.838;37.292;2023-12-20T02:55:41;5.20;94.33
71801;HTU21D;59647;55.838;37.292;2023-12-20T02:58:07;5.21;94.21
71801;HTU21D;59647;55.838;37.292;2023-12-20T03:00:33;5.21;94.44
71801;HTU21D;59647;55.838;37.292;2023-12-20T03:02:58;5.20;94.55
71801;HTU21D;59647;55.838;37.292;2023-12-20T03:05:25;5.22;94.68
71801;HTU21D;59647;55.838;37.292;2023-12-20T03:07:51;5.24;94.36
71801;HTU21D;59647;55.838;37.292;2023-12-20T03:10:19;5.22;94.70
71801;HTU21D;59647;55.838;37.292;2023-12-20T03:12:45;5.15;95.43
71801;HTU21D;59647;55.838;37.292;2023-12-20T03:15:11;5.15;95.23
71801;HTU21D;59647;55.838;37.292;2023-12-20T03:17:36;5.18;94.93
71801;HTU21D;59647;55.838;37.292;2023-12-20T03:20:03;5.19;94.72
71801;HTU21D;59647;55.838;37.292;2023-12-20T03:22:30;5.18;94.67
71801;HTU21D;59647;55.838;37.292;2023-12-20T03:24:56;5.19;94.53
71801;HTU21D;59647;55.838;37.292;2023-12-20T03:27:22;5.20;94.72
71801;HTU21D;59647;55.838;37.292;2023-12-20T03:29:48;5.16;94.97
71801;HTU21D;59647;55.838;37.292;2023-12-20T03:32:14;5.21;94.76
71801;HTU21D;59647;55.838;37.292;2023-12-20T03:34:40;5.27;94.36
71801;HTU21D;59647;55.838;37.292;2023-12-20T03:37:05;5.32;94.14
71801;HTU21D;59647;55.838;37.292;2023-12-20T03:39:31;5.34;93.92
71801;HTU21D;59647;55.838;37.292;2023-12-20T03:41:57;5.32;93.96
71801;HTU21D;59647;55.838;37.292;2023-12-20T03:44:23;5.35;93.86
71801;HTU21D;59647;55.838;37.292;2023-12-20T03:46:49;5.32;93.75
71801;HTU21D;59647;55.838;37.292;2023-12-20T03:49:15;5.34;93.57
71801;HTU21D;59647;55.838;37.292;2023-12-20T03:51:41;5.36;93.55
71801;HTU21D;59647;55.838;37.292;2023-12-20T03:54:08;5.35;93.77
71801;HTU21D;59647;55.838;37.292;2023-12-20T03:56:34;5.35;93.72
71801;HTU21D;59647;55.838;37.292;2023-12-20T03:59:00;5.39;93.63
71801;HTU21D;59647;55.838;37.292;2023-12-20T04:01:26;5.39;93.56
71801;HTU21D;59647;55.838;37.292;2023-12-20T04:03:52;5.35;93.78
71801;HTU21D;59647;55.838;37.292;2023-12-20T04:06:18;5.35;93.84
71801;HTU21D;59647;55.838;37.292;2023-12-20T04:08:44;5.26;94.59
71801;HTU21D;59647;55.838;37.292;2023-12-20T04:11:10;5.27;94.81
71801;HTU21D;59647;55.838;37.292;2023-12-20T04:13:36;5.28;94.66
71801;HTU21D;59647;55.838;37.292;2023-12-20T04:16:01;5.31;94.47
71801;HTU21D;59647;55.838;37.292;2023-12-20T04:18:27;5.30;94.50
71801;HTU21D;59647;55.838;37.292;2023-12-20T04:20:54;5.27;94.56
71801;HTU21D;59647;55.838;37.292;2023-12-20T04:23:20;5.23;94.62
71801;HTU21D;59647;55.838;37.292;2023-12-20T04:25:46;5.26;94.06
71801;HTU21D;59647;55.838;37.292;2023-12-20T04:28:12;5.28;93.77
71801;HTU21D;59647;55.838;37.292;2023-12-20T04:30:38;5.31;93.47
71801;HTU21D;59647;55.838;37.292;2023-12-20T04:33:04;5.27;92.91
71801;HTU21D;59647;55.838;37.292;2023-12-20T04:35:30;5.25;92.85
71801;HTU21D;59647;55.838;37.292;2023-12-20T04:37:56;5.28;92.80
71801;HTU21D;59647;55.838;37.292;2023-12-20T04:40:22;5.33;92.82
71801;HTU21D;59647;55.838;37.292;2023-12-20T04:42:48;5.35;92.71
71801;HTU21D;59647;55.838;37.292;2023-12-20T04:45:14;5.37;92.53
71801;HTU21D;59647;55.838;37.292;2023-12-20T04:47:42;5.40;92.46
71801;HTU21D;59647;55.838;37.292;2023-12-20T04:50:08;5.39;92.37
71801;HTU21D;59647;55.838;37.292;2023-12-20T04:52:35;5.37;92.07
71801;HTU21D;59647;55.838;37.292;2023-12-20T04:55:01;5.36;92.30
71801;HTU21D;59647;55.838;37.292;2023-12-20T04:57:28;5.32;92.50
71801;HTU21D;59647;55.838;37.292;2023-12-20T04:59:54;5.34;92.54
71801;HTU21D;59647;55.838;37.292;2023-12-20T05:02:20;5.35;92.44
71801;HTU21D;59647;55.838;37.292;2023-12-20T05:04:46;5.34;92.40
71801;HTU21D;59647;55.838;37.292;2023-12-20T05:07:12;5.38;92.47
71801;HTU21D;59647;55.838;37.292;2023-12-20T05:09:38;5.35;92.46
71801;HTU21D;59647;55.838;37.292;2023-12-20T05:12:05;5.39;92.46
71801;HTU21D;59647;55.838;37.292;2023-12-20T05:14:31;5.41;92.45
71801;HTU21D;59647;55.838;37.292;2023-12-20T05:16:57;5.41;92.29
71801;HTU21D;59647;55.838;37.292;2023-12-20T05:19:23;5.43;92.33
71801;HTU21D;59647;55.838;37.292;2023-12-20T05:21:49;5.39;92.65
71801;HTU21D;59647;55.838;37.292;2023-12-20T05:24:15;5.38;92.52
71801;HTU21D;59647;55.838;37.292;2023-12-20T05:26:41;5.36;92.85
71801;HTU21D;59647;55.838;37.292;2023-12-20T05:29:07;5.36;92.87
71801;HTU21D;59647;55.838;37.292;2023-12-20T05:31:33;5.36;92.96
71801;HTU21D;59647;55.838;37.292;2023-12-20T05:33:59;5.36;92.99
71801;HTU21D;59647;55.838;37.292;2023-12-20T05:36:25;5.28;93.60
71801;HTU21D;59647;55.838;37.292;2023-12-20T05:38:51;5.31;93.53
71801;HTU21D;59647;55.838;37.292;2023-12-20T05:41:17;5.31;93.46
71801;HTU21D;59647;55.838;37.292;2023-12-20T05:43:43;5.31;93.22
71801;HTU21D;59647;55.838;37.292;2023-12-20T05:46:10;5.34;93.08
71801;HTU21D;59647;55.838;37.292;2023-12-20T05:48:37;5.36;92.89
71801;HTU21D;59647;55.838;37.292;2023-12-20T05:51:03;5.34;92.77
71801;HTU21D;59647;55.838;37.292;2023-12-20T05:53:30;5.32;92.69
71801;HTU21D;59647;55.838;37.292;2023-12-20T05:55:56;5.26;92.87
71801;HTU21D;59647;55.838;37.292;2023-12-20T05:58:22;5.17;92.95
71801;HTU21D;59647;55.838;37.292;2023-12-20T06:00:48;5.15;92.96
71801;HTU21D;59647;55.838;37.292;2023-12-20T06:03:14;5.12;93.19
71801;HTU21D;59647;55.838;37.292;2023-12-20T06:05:40;5.13;92.98
71801;HTU21D;59647;55.838;37.292;2023-12-20T06:08:06;5.10;93.25
71801;HTU21D;59647;55.838;37.292;2023-12-20T06:10:32;5.07;93.54
71801;HTU21D;59647;55.838;37.292;2023-12-20T06:12:58;5.06;93.50
71801;HTU21D;59647;55.838;37.292;2023-12-20T06:15:26;5.07;93.52
71801;HTU21D;59647;55.838;37.292;2023-12-20T06:17:52;5.11;93.36
71801;HTU21D;59647;55.838;37.292;2023-12-20T06:20:18;5.16;93.04
71801;HTU21D;59647;55.838;37.292;2023-12-20T06:22:44;5.19;93.04
71801;HTU21D;59647;55.838;37.292;2023-12-20T06:25:10;5.19;93.26
71801;HTU21D;59647;55.838;37.292;2023-12-20T06:27:36;5.22;93.20
71801;HTU21D;59647;55.838;37.292;2023-12-20T06:30:02;5.22;93.18
71801;HTU21D;59647;55.838;37.292;2023-12-20T06:32:31;5.19;93.39
71801;HTU21D;59647;55.838;37.292;2023-12-20T06:34:57;5.18;93.49
71801;HTU21D;59647;55.838;37.292;2023-12-20T06:37:23;5.22;93.24
71801;HTU21D;59647;55.838;37.292;2023-12-20T06:39:49;5.26;93.05
71801;HTU21D;59647;55.838;37.292;2023-12-20T06:42:15;5.25;93.11
71801;HTU21D;59647;55.838;37.292;2023-12-20T06:44:41;5.28;93.09
71801;HTU21D;59647;55.838;37.292;2023-12-20T06:47:07;5.28;93.09
71801;HTU21D;59647;55.838;37.292;2023-12-20T06:49:33;5.26;93.36
71801;HTU21D;59647;55.838;37.292;2023-12-20T06:51:59;5.24;93.38
71801;HTU21D;59647;55.838;37.292;2023-12-20T06:54:25;5.23;93.59
71801;HTU21D;59647;55.838;37.292;2023-12-20T06:56:51;5.27;93.41
71801;HTU21D;59647;55.838;37.292;2023-12-20T06:59:17;5.28;93.66
71801;HTU21D;59647;55.838;37.292;2023-12-20T07:01:47;5.31;93.35
71801;HTU21D;59647;55.838;37.292;2023-12-20T07:04:13;5.35;93.37
71801;HTU21D;59647;55.838;37.292;2023-12-20T07:06:39;5.41;93.06
71801;HTU21D;59647;55.838;37.292;2023-12-20T07:09:05;5.42;93.04
71801;HTU21D;59647;55.838;37.292;2023-12-20T07:11:31;5.47;92.93
71801;HTU21D;59647;55.838;37.292;2023-12-20T07:13:57;5.51;92.69
71801;HTU21D;59647;55.838;37.292;2023-12-20T07:16:23;5.49;92.36
71801;HTU21D;59647;55.838;37.292;2023-12-20T07:18:50;5.40;92.88
71801;HTU21D;59647;55.838;37.292;2023-12-20T07:21:17;5.45;92.82
71801;HTU21D;59647;55.838;37.292;2023-12-20T07:23:44;5.43;92.92
71801;HTU21D;59647;55.838;37.292;2023-12-20T07:26:10;5.46;92.91
71801;HTU21D;59647;55.838;37.292;2023-12-20T07:28:37;5.46;93.04
71801;HTU21D;59647;55.838;37.292;2023-12-20T07:31:03;5.50;92.87
71801;HTU21D;59647;55.838;37.292;2023-12-20T07:33:29;5.52;92.52
71801;HTU21D;59647;55.838;37.292;2023-12-20T07:35:55;5.54;92.55
71801;HTU21D;59647;55.838;37.292;2023-12-20T07:38:21;5.52;92.60
71801;HTU21D;59647;55.838;37.292;2023-12-20T07:40:47;5.52;92.58
71801;HTU21D;59647;55.838;37.292;2023-12-20T07:43:13;5.51;92.44
71801;HTU21D;59647;55.838;37.292;2023-12-20T07:45:39;5.54;92.43
71801;HTU21D;59647;55.838;37.292;2023-12-20T07:48:06;5.60;92.20
71801;HTU21D;59647;55.838;37.292;2023-12-20T07:50:32;5.65;92.04
71801;HTU21D;59647;55.838;37.292;2023-12-20T07:52:58;5.68;91.92
71801;HTU21D;59647;55.838;37.292;2023-12-20T07:55:27;5.60;91.73
71801;HTU21D;59647;55.838;37.292;2023-12-20T07:57:53;5.66;91.72
71801;HTU21D;59647;55.838;37.292;2023-12-20T08:00:19;5.69;91.51
71801;HTU21D;59647;55.838;37.292;2023-12-20T08:02:45;5.75;91.69
71801;HTU21D;59647;55.838;37.292;2023-12-20T08:05:11;5.83;91.56
71801;HTU21D;59647;55.838;37.292;2023-12-20T08:07:37;5.92;91.14
71801;HTU21D;59647;55.838;37.292;2023-12-20T08:10:03;5.90;90.78
71801;HTU21D;59647;55.838;37.292;2023-12-20T08:12:29;5.91;90.95
71801;HTU21D;59647;55.838;37.292;2023-12-20T08:14:56;5.91;90.75
71801;HTU21D;59647;55.838;37.292;2023-12-20T08:17:22;5.94;90.82
71801;HTU21D;59647;55.838;37.292;2023-12-20T08:19:49;5.94;90.53
71801;HTU21D;59647;55.838;37.292;2023-12-20T08:22:15;5.95;90.43
71801;HTU21D;59647;55.838;37.292;2023-12-20T08:24:41;5.99;90.50
71801;HTU21D;59647;55.838;37.292;2023-12-20T08:27:07;6.05;90.63
71801;HTU21D;59647;55.838;37.292;2023-12-20T08:29:32;5.99;89.73
71801;HTU21D;59647;55.838;37.292;2023-12-20T08:31:59;6.04;90.36
71801;HTU21D;59647;55.838;37.292;2023-12-20T08:34:25;6.09;90.40
71801;HTU21D;59647;55.838;37.292;2023-12-20T08:36:52;6.01;89.86
71801;HTU21D;59647;55.838;37.292;2023-12-20T08:39:18;6.02;90.08
71801;HTU21D;59647;55.838;37.292;2023-12-20T08:41:44;6.05;90.07
71801;HTU21D;59647;55.838;37.292;2023-12-20T08:44:10;6.09;90.18
71801;HTU21D;59647;55.838;37.292;2023-12-20T08:46:38;6.14;90.10
71801;HTU21D;59647;55.838;37.292;2023-12-20T08:49:04;6.20;90.10
71801;HTU21D;59647;55.838;37.292;2023-12-20T08:51:31;6.23;90.21
71801;HTU21D;59647;55.838;37.292;2023-12-20T08:53:57;6.21;89.70
71801;HTU21D;59647;55.838;37.292;2023-12-20T08:56:23;6.26;89.83
71801;HTU21D;59647;55.838;37.292;2023-12-20T08:58:48;6.30;89.99
71801;HTU21D;59647;55.838;37.292;2023-12-20T09:01:15;6.22;89.77
71801;HTU21D;59647;55.838;37.292;2023-12-20T09:03:40;6.19;89.86
71801;HTU21D;59647;55.838;37.292;2023-12-20T09:06:06;6.22;90.14
71801;HTU21D;59647;55.838;37.292;2023-12-20T09:08:32;6.17;89.65
71801;HTU21D;59647;55.838;37.292;2023-12-20T09:10:59;6.20;89.95
71801;HTU21D;59647;55.838;37.292;2023-12-20T09:13:26;6.22;89.86
71801;HTU21D;59647;55.838;37.292;2023-12-20T09:15:57;6.23;90.12
71801;HTU21D;59647;55.838;37.292;2023-12-20T09:18:23;6.21;90.01
71801;HTU21D;59647;55.838;37.292;2023-12-20T09:20:50;6.15;89.93
71801;HTU21D;59647;55.838;37.292;2023-12-20T09:23:15;6.16;90.27
71801;HTU21D;59647;55.838;37.292;2023-12-20T09:25:42;6.12;90.28
71801;HTU21D;59647;55.838;37.292;2023-12-20T09:28:08;6.17;90.40
71801;HTU21D;59647;55.838;37.292;2023-12-20T09:30:34;6.23;90.37
71801;HTU21D;59647;55.838;37.292;2023-12-20T09:33:03;6.22;90.17
71801;HTU21D;59647;55.838;37.292;2023-12-20T09:35:29;6.24;90.27
71801;HTU21D;59647;55.838;37.292;2023-12-20T09:37:55;6.17;89.79
71801;HTU21D;59647;55.838;37.292;2023-12-20T09:40:22;6.19;90.20
71801;HTU21D;59647;55.838;37.292;2023-12-20T09:42:57;6.17;90.40
71801;HTU21D;59647;55.838;37.292;2023-12-20T09:45:24;6.17;90.37
71801;HTU21D;59647;55.838;37.292;2023-12-20T09:47:52;6.15;90.42
71801;HTU21D;59647;55.838;37.292;2023-12-20T09:50:20;6.20;90.24
71801;HTU21D;59647;55.838;37.292;2023-12-20T09:52:51;6.17;90.42
71801;HTU21D;59647;55.838;37.292;2023-12-20T09:55:18;6.21;90.28
71801;HTU21D;59647;55.838;37.292;2023-12-20T09:57:48;6.23;90.07
71801;HTU21D;59647;55.838;37.292;2023-12-20T10:00:15;6.21;90.22
71801;HTU21D;59647;55.838;37.292;2023-12-20T10:02:57;6.25;90.28
71801;HTU21D;59647;55.838;37.292;2023-12-20T10:05:31;6.25;90.22
71801;HTU21D;59647;55.838;37.292;2023-12-20T10:07:57;6.21;90.25
71801;HTU21D;59647;55.838;37.292;2023-12-20T10:10:25;6.21;90.23
71801;HTU21D;59647;55.838;37.292;2023-12-20T10:13:09;6.11;90.72
71801;HTU21D;59647;55.838;37.292;2023-12-20T10:15:36;6.09;90.65
71801;HTU21D;59647;55.838;37.292;2023-12-20T10:18:03;6.07;90.76
71801;HTU21D;59647;55.838;37.292;2023-12-20T10:20:30;6.10;91.03
71801;HTU21D;59647;55.838;37.292;2023-12-20T10:22:57;6.09;91.31
71801;HTU21D;59647;55.838;37.292;2023-12-20T10:25:24;6.14;90.99
71801;HTU21D;59647;55.838;37.292;2023-12-20T10:30:37;6.23;90.62
71801;HTU21D;59647;55.838;37.292;2023-12-20T10:33:05;6.19;90.27
71801;HTU21D;59647;55.838;37.292;2023-12-20T10:35:32;6.17;90.63
71801;HTU21D;59647;55.838;37.292;2023-12-20T10:38:02;6.14;90.61
71801;HTU21D;59647;55.838;37.292;2023-12-20T10:40:29;6.17;90.68
71801;HTU21D;59647;55.838;37.292;2023-12-20T10:42:56;6.17;90.59
71801;HTU21D;59647;55.838;37.292;2023-12-20T10:45:22;6.15;90.31
71801;HTU21D;59647;55.838;37.292;2023-12-20T10:47:50;6.20;90.57
71801;HTU21D;59647;55.838;37.292;2023-12-20T10:50:18;6.25;90.37
71801;HTU21D;59647;55.838;37.292;2023-12-20T10:52:45;6.29;90.41
71801;HTU21D;59647;55.838;37.292;2023-12-20T10:55:12;6.35;89.92
71801;HTU21D;59647;55.838;37.292;2023-12-20T10:57:39;6.37;89.76
71801;HTU21D;59647;55.838;37.292;2023-12-20T11:00:08;6.34;89.39
71801;HTU21D;59647;55.838;37.292;2023-12-20T11:02:39;6.28;89.10
71801;HTU21D;59647;55.838;37.292;2023-12-20T11:07:50;6.31;89.38
71801;HTU21D;59647;55.838;37.292;2023-12-20T11:10:39;6.34;89.10
71801;HTU21D;59647;55.838;37.292;2023-12-20T11:13:17;6.33;89.25
71801;HTU21D;59647;55.838;37.292;2023-12-20T11:15:45;6.34;89.33
71801;HTU21D;59647;55.838;37.292;2023-12-20T11:18:11;6.31;89.08
71801;HTU21D;59647;55.838;37.292;2023-12-20T11:20:41;6.36;89.25
71801;HTU21D;59647;55.838;37.292;2023-12-20T11:23:09;6.30;88.89
71801;HTU21D;59647;55.838;37.292;2023-12-20T11:25:56;6.29;89.04
71801;HTU21D;59647;55.838;37.292;2023-12-20T11:28:24;6.25;89.13
71801;HTU21D;59647;55.838;37.292;2023-12-20T11:30:55;6.30;89.47
71801;HTU21D;59647;55.838;37.292;2023-12-20T11:33:36;6.34;88.83
71801;HTU21D;59647;55.838;37.292;2023-12-20T11:36:02;6.28;89.06
71801;HTU21D;59647;55.838;37.292;2023-12-20T11:38:38;6.34;89.35
71801;HTU21D;59647;55.838;37.292;2023-12-20T11:41:07;6.30;88.78
71801;HTU21D;59647;55.838;37.292;2023-12-20T11:43:37;6.27;89.04
71801;HTU21D;59647;55.838;37.292;2023-12-20T11:46:07;6.23;89.30
71801;HTU21D;59647;55.838;37.292;2023-12-20T11:48:36;6.23;89.39
71801;HTU21D;59647;55.838;37.292;2023-12-20T11:51:02;6.26;89.28
71801;HTU21D;59647;55.838;37.292;2023-12-20T11:53:29;6.23;89.18
71801;HTU21D;59647;55.838;37.292;2023-12-20T11:55:57;6.20;89.38
71801;HTU21D;59647;55.838;37.292;2023-12-20T11:58:23;6.19;89.44
71801;HTU21D;59647;55.838;37.292;2023-12-20T12:00:50;6.14;89.60
71801;HTU21D;59647;55.838;37.292;2023-12-20T12:03:16;6.10;89.63
71801;HTU21D;59647;55.838;37.292;2023-12-20T12:05:42;6.06;89.99
71801;HTU21D;59647;55.838;37.292;2023-12-20T12:08:08;6.05;90.14
71801;HTU21D;59647;55.838;37.292;2023-12-20T12:10:34;6.07;90.14
71801;HTU21D;59647;55.838;37.292;2023-12-20T12:13:00;6.07;90.05
71801;HTU21D;59647;55.838;37.292;2023-12-20T12:15:29;6.10;90.12
71801;HTU21D;59647;55.838;37.292;2023-12-20T12:17:56;6.11;90.04
71801;HTU21D;59647;55.838;37.292;2023-12-20T12:20:23;6.10;90.24
71801;HTU21D;59647;55.838;37.292;2023-12-20T12:23:04;6.09;89.95
71801;HTU21D;59647;55.838;37.292;2023-12-20T12:25:32;6.09;90.11
71801;HTU21D;59647;55.838;37.292;2023-12-20T12:28:01;6.06;90.31
71801;HTU21D;59647;55.838;37.292;2023-12-20T12:30:28;6.06;90.30
71801;HTU21D;59647;55.838;37.292;2023-12-20T12:32:55;6.08;90.23
71801;HTU21D;59647;55.838;37.292;2023-12-20T12:35:22;6.08;90.16
71801;HTU21D;59647;55.838;37.292;2023-12-20T12:37:48;6.07;90.28
71801;HTU21D;59647;55.838;37.292;2023-12-20T12:40:16;6.04;90.58
71801;HTU21D;59647;55.838;37.292;2023-12-20T12:42:43;5.95;91.47
71801;HTU21D;59647;55.838;37.292;2023-12-20T12:45:10;5.97;91.53
71801;HTU21D;59647;55.838;37.292;2023-12-20T12:47:40;5.95;91.69
71801;HTU21D;59647;55.838;37.292;2023-12-20T12:50:07;5.92;92.01
71801;HTU21D;59647;55.838;37.292;2023-12-20T12:52:33;5.93;91.93
71801;HTU21D;59647;55.838;37.292;2023-12-20T12:54:59;5.95;91.58
71801;HTU21D;59647;55.838;37.292;2023-12-20T12:57:25;5.92;91.99
71801;HTU21D;59647;55.838;37.292;2023-12-20T12:59:51;5.89;91.93
71801;HTU21D;59647;55.838;37.292;2023-12-20T13:02:20;5.93;91.78
71801;HTU21D;59647;55.838;37.292;2023-12-20T13:04:46;5.96;91.58
71801;HTU21D;59647;55.838;37.292;2023-12-20T13:07:12;5.95;91.40
71801;HTU21D;59647;55.838;37.292;2023-12-20T13:09:39;5.91;91.69
71801;HTU21D;59647;55.838;37.292;2023-12-20T13:12:07;5.87;91.87
71801;HTU21D;59647;55.838;37.292;2023-12-20T13:14:34;5.89;91.60
71801;HTU21D;59647;55.838;37.292;2023-12-20T13:17:03;5.89;91.37
71801;HTU21D;59647;55.838;37.292;2023-12-20T13:19:30;5.87;91.34
71801;HTU21D;59647;55.838;37.292;2023-12-20T13:21:56;5.89;91.21
71801;HTU21D;59647;55.838;37.292;2023-12-20T13:24:24;5.85;91.13
71801;HTU21D;59647;55.838;37.292;2023-12-20T13:26:50;5.82;91.16
71801;HTU21D;59647;55.838;37.292;2023-12-20T13:29:16;5.82;91.11
71801;HTU21D;59647;55.838;37.292;2023-12-20T13:31:42;5.78;91.15
71801;HTU21D;59647;55.838;37.292;2023-12-20T13:34:08;5.76;91.21
71801;HTU21D;59647;55.838;37.292;2023-12-20T13:36:34;5.66;91.53
71801;HTU21D;59647;55.838;37.292;2023-12-20T13:39:03;5.57;91.65
71801;HTU21D;59647;55.838;37.292;2023-12-20T13:41:33;5.54;91.75
71801;HTU21D;59647;55.838;37.292;2023-12-20T13:43:59;5.50;91.72
71801;HTU21D;59647;55.838;37.292;2023-12-20T13:46:27;5.46;91.63
71801;HTU21D;59647;55.838;37.292;2023-12-20T13:48:53;5.41;91.59
71801;HTU21D;59647;55.838;37.292;2023-12-20T13:51:19;5.38;91.72
71801;HTU21D;59647;55.838;37.292;2023-12-20T13:53:46;5.35;92.68
71801;HTU21D;59647;55.838;37.292;2023-12-20T13:56:15;5.36;93.13
71801;HTU21D;59647;55.838;37.292;2023-12-20T13:58:41;5.30;94.40
71801;HTU21D;59647;55.838;37.292;2023-12-20T14:01:10;5.32;93.78
71801;HTU21D;59647;55.838;37.292;2023-12-20T14:03:37;5.35;93.47
71801;HTU21D;59647;55.838;37.292;2023-12-20T14:06:04;5.38;93.54
71801;HTU21D;59647;55.838;37.292;2023-12-20T14:08:32;5.46;93.27
71801;HTU21D;59647;55.838;37.292;2023-12-20T14:10:58;5.51;92.97
71801;HTU21D;59647;55.838;37.292;2023-12-20T14:13:24;5.57;92.63
71801;HTU21D;59647;55.838;37.292;2023-12-20T14:15:50;5.57;92.43
71801;HTU21D;59647;55.838;37.292;2023-12-20T14:18:16;5.54;92.40
71801;HTU21D;59647;55.838;37.292;2023-12-20T14:20:42;5.50;92.66
71801;HTU21D;59647;55.838;37.292;2023-12-20T14:23:10;5.49;92.44
71801;HTU21D;59647;55.838;37.292;2023-12-20T14:25:36;5.52;92.37
71801;HTU21D;59647;55.838;37.292;2023-12-20T14:28:05;5.51;92.33
71801;HTU21D;59647;55.838;37.292;2023-12-20T14:30:31;5.52;92.41
71801;HTU21D;59647;55.838;37.292;2023-12-20T14:32:58;5.52;92.45
71801;HTU21D;59647;55.838;37.292;2023-12-20T14:35:24;5.52;92.59
71801;HTU21D;59647;55.838;37.292;2023-12-20T14:37:50;5.53;93.01
71801;HTU21D;59647;55.838;37.292;2023-12-20T14:40:16;5.52;92.76
71801;HTU21D;59647;55.838;37.292;2023-12-20T14:42:48;5.57;92.65
71801;HTU21D;59647;55.838;37.292;2023-12-20T14:45:15;5.57;92.30
71801;HTU21D;59647;55.838;37.292;2023-12-20T14:47:42;5.59;92.19
71801;HTU21D;59647;55.838;37.292;2023-12-20T14:50:08;5.59;92.01
71801;HTU21D;59647;55.838;37.292;2023-12-20T14:52:34;5.55;92.22
71801;HTU21D;59647;55.838;37.292;2023-12-20T14:55:01;5.45;92.71
71801;HTU21D;59647;55.838;37.292;2023-12-20T14:57:30;5.43;92.98
71801;HTU21D;59647;55.838;37.292;2023-12-20T14:59:57;5.46;92.85
71801;HTU21D;59647;55.838;37.292;2023-12-20T15:02:23;5.51;92.61
71801;HTU21D;59647;55.838;37.292;2023-12-20T15:04:49;5.57;92.51
71801;HTU21D;59647;55.838;37.292;2023-12-20T15:07:19;5.60;92.40
71801;HTU21D;59647;55.838;37.292;2023-12-20T15:09:45;5.59;92.17
71801;HTU21D;59647;55.838;37.292;2023-12-20T15:12:13;5.56;92.26
71801;HTU21D;59647;55.838;37.292;2023-12-20T15:14:39;5.53;92.22
71801;HTU21D;59647;55.838;37.292;2023-12-20T15:17:05;5.52;92.35